Johnny James — WYT8450 — position and weather

sailwx.info

Track history (hours):
 
Tides and Currents Weather Stations Pressure Air Temp Water Temp Dewpoint Dewpoint Depression Visibility Wind Speed Wind Dir Waves Ship Positions

Johnny James

Owner: CALLAIS & SONS INC, CUT OFF, LA. More information available from US FCC via Universal Licensing System and Coast Guard Vessel Documentation Center.

Last reported at 2016-May-29 09:33 UTC. Time now 2016-May-29 09:41 UTC.
Position N 30°10' W 093°19'.

Length 20 m.

Type: Towing. MMSI: 367005220.

Date/timePositionNaut miles runAvg speedWind from/ knotsBaromVisibWave heightAir tempDewpointWater temp
2016-May-29 09:33N 30°10' W 093°19'0 0.0
2016-May-29 08:33N 30°10' W 093°19'0 0.0
2016-May-29 07:32N 30°10' W 093°19'0 0.0
2016-May-29 06:33N 30°10' W 093°19'0 0.0
2016-May-29 05:33N 30°10' W 093°19'0 0.0
2016-May-29 04:33N 30°10' W 093°19'0 0.0
2016-May-29 03:11N 30°10' W 093°19'0 0.0
2016-May-29 02:33N 30°10' W 093°19'0 0.0
2016-May-29 01:33N 30°10' W 093°19'0 0.0
2016-May-28 23:21N 30°10' W 093°19'0 0.0
2016-May-28 22:34N 30°10' W 093°19'0 0.0
2016-May-28 21:34N 30°10' W 093°19'0 0.0
2016-May-28 20:34N 30°10' W 093°19'0 0.0
2016-May-28 19:34N 30°10' W 093°19'0 0.0
2016-May-28 18:33N 30°10' W 093°19'0 0.0
2016-May-28 17:34N 30°10' W 093°19'0 0.0
2016-May-28 16:34N 30°10' W 093°19'0 0.0
2016-May-28 15:34N 30°10' W 093°19'0 0.0
2016-May-28 14:34N 30°10' W 093°19'0 0.0
2016-May-28 13:30N 30°10' W 093°19'0 0.0
2016-May-28 12:33N 30°10' W 093°19'0 0.0
2016-May-28 11:33N 30°10' W 093°19'1 0.3
2016-May-28 09:19N 30°10' W 093°19'3 2.7
2016-May-28 08:16N 30°07' W 093°20'2 3.4
2016-May-28 07:34N 30°05' W 093°20'3 2.8
2016-May-28 06:34N 30°04' W 093°23'5 5.1
2016-May-28 05:33N 30°04' W 093°29'5 5.0
2016-May-28 04:34N 30°04' W 093°35'5 4.8
2016-May-28 03:34N 30°03' W 093°40'5 5.0
2016-May-28 02:32N 30°01' W 093°46'  
Track history (hours):
 
Tides and Currents Weather Stations Pressure Air Temp Water Temp Dewpoint Dewpoint Depression Visibility Wind Speed Wind Dir Waves Ship Positions

Johnny James

Owner: CALLAIS & SONS INC, CUT OFF, LA. More information available from US FCC via Universal Licensing System and Coast Guard Vessel Documentation Center.

Last reported at 2016-May-29 09:33 UTC. Time now 2016-May-29 09:41 UTC.
Position N 30°10' W 093°19'.

Length 20 m.

Type: Towing. MMSI: 367005220.

Date/timePositionNaut miles runAvg speedWind from/ knotsBaromVisibWave heightAir tempDewpointWater temp
2016-May-29 09:33N 30°10' W 093°19'0 0.0
2016-May-29 08:33N 30°10' W 093°19'0 0.0
2016-May-29 07:32N 30°10' W 093°19'0 0.0
2016-May-29 06:33N 30°10' W 093°19'0 0.0
2016-May-29 05:33N 30°10' W 093°19'0 0.0
2016-May-29 04:33N 30°10' W 093°19'0 0.0
2016-May-29 03:11N 30°10' W 093°19'0 0.0
2016-May-29 02:33N 30°10' W 093°19'0 0.0
2016-May-29 01:33N 30°10' W 093°19'0 0.0
2016-May-28 23:21N 30°10' W 093°19'0 0.0
2016-May-28 22:34N 30°10' W 093°19'0 0.0
2016-May-28 21:34N 30°10' W 093°19'0 0.0
2016-May-28 20:34N 30°10' W 093°19'0 0.0
2016-May-28 19:34N 30°10' W 093°19'0 0.0
2016-May-28 18:33N 30°10' W 093°19'0 0.0
2016-May-28 17:34N 30°10' W 093°19'0 0.0
2016-May-28 16:34N 30°10' W 093°19'0 0.0
2016-May-28 15:34N 30°10' W 093°19'0 0.0
2016-May-28 14:34N 30°10' W 093°19'0 0.0
2016-May-28 13:30N 30°10' W 093°19'0 0.0
2016-May-28 12:33N 30°10' W 093°19'0 0.0
2016-May-28 11:33N 30°10' W 093°19'1 0.3
2016-May-28 09:19N 30°10' W 093°19'3 2.7
2016-May-28 08:16N 30°07' W 093°20'2 3.4
2016-May-28 07:34N 30°05' W 093°20'3 2.8
2016-May-28 06:34N 30°04' W 093°23'5 5.1
2016-May-28 05:33N 30°04' W 093°29'5 5.0
2016-May-28 04:34N 30°04' W 093°35'5 4.8
2016-May-28 03:34N 30°03' W 093°40'5 5.0
2016-May-28 02:32N 30°01' W 093°46'  

Dump ship's entire track history